createdAt,value
2019-02-15T00:00:02.788Z,26.92
2019-02-15T00:01:03.392Z,25.66
2019-02-15T00:02:02.991Z,25.22
2019-02-15T00:03:03.371Z,25.52
2019-02-15T00:04:03.001Z,30.49
2019-02-15T00:05:03.331Z,25.06
2019-02-15T00:06:03.143Z,25.86
2019-02-15T00:07:03.639Z,25.26
2019-02-15T00:08:02.899Z,28.37
2019-02-15T00:09:03.743Z,25.14
2019-02-15T00:10:03.349Z,25.77
2019-02-15T00:11:03.401Z,24.58
2019-02-15T00:12:03.373Z,24.66
2019-02-15T00:13:02.839Z,22.18
2019-02-15T00:14:03.356Z,26.87
2019-02-15T00:15:03.475Z,25.08
2019-02-15T00:16:02.790Z,29.52
2019-02-15T00:17:03.149Z,29.64
2019-02-15T00:18:02.980Z,27.71
2019-02-15T00:19:03.466Z,26.21
2019-02-15T00:20:02.993Z,24.88
2019-02-15T00:21:03.036Z,24.88
2019-02-15T00:22:02.792Z,27.19
2019-02-15T00:23:03.052Z,27.19
2019-02-15T00:24:03.142Z,29.65
2019-02-15T00:25:03.538Z,20.88
2019-02-15T00:26:03.088Z,20.88
2019-02-15T00:27:03.429Z,22.77
2019-02-15T00:28:03.034Z,22.77
2019-02-15T00:29:03.502Z,21.72
2019-02-15T00:30:03.321Z,29.22
2019-02-15T00:31:03.492Z,36.18
2019-02-15T00:32:03.054Z,23.33
2019-02-15T00:33:03.600Z,25.81
2019-02-15T00:34:02.862Z,27.86
2019-02-15T00:35:03.499Z,25.76
2019-02-15T00:36:02.764Z,27.92
2019-02-15T00:37:03.613Z,30.26
2019-02-15T00:38:03.076Z,29.14
2019-02-15T00:39:03.167Z,27.91
2019-02-15T00:40:03.677Z,30.06
2019-02-15T00:41:02.792Z,33
2019-02-15T00:42:03.459Z,28.96
2019-02-15T00:43:02.879Z,28.92
2019-02-15T00:44:03.398Z,29.36
2019-02-15T00:45:03.015Z,31.22
2019-02-15T00:46:03.284Z,28.41
2019-02-15T00:47:03.478Z,31.31
2019-02-15T00:48:02.911Z,28.58
2019-02-15T00:49:02.685Z,31.34
2019-02-15T00:50:02.944Z,27.81
2019-02-15T00:51:02.624Z,28.22
2019-02-15T00:52:02.604Z,28.46
2019-02-15T00:53:03.299Z,24.55
2019-02-15T00:54:03.017Z,31.49
2019-02-15T00:55:03.517Z,29.42
2019-02-15T00:56:02.911Z,24.09
2019-02-15T00:57:03.168Z,29.72
2019-02-15T00:58:03.462Z,27.62
2019-02-15T00:59:03.034Z,27.75
2019-02-15T01:00:03.708Z,27.96
2019-02-15T01:01:03.012Z,26.41
2019-02-15T01:02:02.845Z,29.96
2019-02-15T01:03:02.755Z,26.48
2019-02-15T01:04:02.630Z,27.62
2019-02-15T01:05:02.713Z,25.71
2019-02-15T01:06:03.627Z,25.48
2019-02-15T01:07:02.991Z,29.29
2019-02-15T01:08:03.292Z,27.26
2019-02-15T01:09:03.569Z,25.92
2019-02-15T01:10:03.145Z,29.26
2019-02-15T01:11:03.460Z,27.05
2019-02-15T01:12:02.923Z,30.17
2019-02-15T01:13:02.738Z,30.17
2019-02-15T01:14:03.023Z,24.31
2019-02-15T01:15:03.835Z,24.31
2019-02-15T01:16:02.992Z,27.22
2019-02-15T01:17:03.815Z,34.01
2019-02-15T01:18:02.987Z,34.01
2019-02-15T01:19:02.820Z,30.78
2019-02-15T01:20:03.059Z,28.65
2019-02-15T01:21:02.707Z,28.65
2019-02-15T01:22:03.133Z,30.05
2019-02-15T01:23:02.844Z,35.22
2019-02-15T01:24:03.026Z,36.61
2019-02-15T01:25:03.408Z,31.07
2019-02-15T01:26:03.527Z,32.91
2019-02-15T01:27:03.192Z,31.32
2019-02-15T01:28:02.852Z,30.23
2019-02-15T01:29:03.221Z,28.32
2019-02-15T01:30:03.445Z,29.96
2019-02-15T01:31:03.179Z,28.99
2019-02-15T01:32:03.576Z,26.12
2019-02-15T01:33:03.106Z,32.13
2019-02-15T01:34:03.608Z,30.96
2019-02-15T01:35:02.865Z,28.53
2019-02-15T01:36:03.216Z,23.26
2019-02-15T01:37:03.203Z,31.92
2019-02-15T01:38:03.377Z,33.58
2019-02-15T01:39:02.843Z,30.35
2019-02-15T01:40:03.318Z,36.86
2019-02-15T01:41:03.496Z,30.62
2019-02-15T01:42:03.008Z,28.43
2019-02-15T01:43:03.424Z,28.84
2019-02-15T01:44:02.791Z,34.43
2019-02-15T01:45:03.474Z,31.16
2019-02-15T01:46:03.141Z,28.49
2019-02-15T01:47:03.413Z,29.98
2019-02-15T01:48:02.806Z,30.74
2019-02-15T01:49:03.030Z,28.92
2019-02-15T01:50:03.344Z,31.34
2019-02-15T01:51:02.845Z,31.94
2019-02-15T01:52:02.790Z,28.03
2019-02-15T01:53:03.195Z,28.46
2019-02-15T01:54:02.862Z,30.69
2019-02-15T01:55:03.186Z,31.09
2019-02-15T01:56:02.543Z,32.35
2019-02-15T01:57:02.768Z,34.87
2019-02-15T01:58:02.647Z,29.49
2019-02-15T01:59:03.279Z,32.88
2019-02-15T02:00:03.163Z,32.88
2019-02-15T02:01:03.253Z,35.89
2019-02-15T02:02:02.928Z,35.59
2019-02-15T02:03:03.081Z,35.59
2019-02-15T02:04:02.780Z,32.58
2019-02-15T02:05:03.439Z,30.96
2019-02-15T02:06:03.392Z,30.96
2019-02-15T02:07:03.081Z,28.07
2019-02-15T02:08:03.416Z,35.46
2019-02-15T02:09:02.862Z,29.9
2019-02-15T02:10:03.263Z,34.41
2019-02-15T02:11:02.935Z,32.51
2019-02-15T02:12:03.217Z,29.28
2019-02-15T02:13:03.091Z,33.86
2019-02-15T02:14:03.114Z,32.88
2019-02-15T02:15:03.883Z,31.22
2019-02-15T02:16:03.171Z,34.79
2019-02-15T02:17:03.397Z,32.94
2019-02-15T02:18:03.080Z,32.75
2019-02-15T02:19:03.489Z,32.08
2019-02-15T02:20:02.961Z,34.98
2019-02-15T02:21:03.265Z,28.52
2019-02-15T02:22:02.489Z,29.25
2019-02-15T02:23:03.509Z,31.76
2019-02-15T02:24:03.755Z,28
2019-02-15T02:25:03.122Z,34.46
2019-02-15T02:26:03.915Z,30.34
2019-02-15T02:27:03.058Z,30.38
2019-02-15T02:28:03.345Z,32.63
2019-02-15T02:29:02.984Z,32.71
2019-02-15T02:30:03.389Z,27.78
2019-02-15T02:31:02.953Z,31.02
2019-02-15T02:32:03.943Z,39.54
2019-02-15T02:33:02.664Z,31.22
2019-02-15T02:34:03.194Z,33.58
2019-02-15T02:35:03.492Z,33.36
2019-02-15T02:36:03.002Z,30.58
2019-02-15T02:37:03.558Z,33.9
2019-02-15T02:38:03.128Z,30.75
2019-02-15T02:39:03.385Z,28.27
2019-02-15T02:40:03.248Z,32.96
2019-02-15T02:41:03.270Z,38.54
2019-02-15T02:42:03.065Z,36.14
2019-02-15T02:43:03.218Z,26.62
2019-02-15T02:44:02.759Z,28.9
2019-02-15T02:45:03.144Z,31.93
2019-02-15T02:46:02.734Z,28.76
2019-02-15T02:47:03.181Z,29.53
2019-02-15T02:48:02.712Z,33.25
2019-02-15T02:49:03.093Z,33.73
2019-02-15T02:50:03.787Z,32.28
2019-02-15T02:51:02.932Z,29.12
2019-02-15T02:52:03.641Z,29.12
2019-02-15T02:53:02.830Z,30.23
2019-02-15T02:54:03.612Z,30.53
2019-02-15T02:55:03.100Z,30.53
2019-02-15T02:56:03.257Z,32.04
2019-02-15T02:57:02.798Z,36.61
2019-02-15T02:58:02.965Z,36.61
2019-02-15T02:59:02.856Z,29.86
2019-02-15T03:00:03.090Z,28.84
2019-02-15T03:01:02.888Z,30.42
2019-02-15T03:02:03.177Z,31.35
2019-02-15T03:03:02.767Z,35.9
2019-02-15T03:04:03.255Z,35.53
2019-02-15T03:05:03.638Z,33.99
2019-02-15T03:06:03.118Z,30.39
2019-02-15T03:07:03.622Z,28.38
2019-02-15T03:08:03.260Z,30.53
2019-02-15T03:09:03.628Z,35.49
2019-02-15T03:10:03.222Z,38.49
2019-02-15T03:11:03.375Z,35.24
2019-02-15T03:12:02.981Z,30.78
2019-02-15T03:13:03.150Z,41.63
2019-02-15T03:14:11.039Z,29.31
2019-02-15T03:15:02.630Z,34.58
2019-02-15T03:16:02.840Z,29.62
2019-02-15T03:17:03.132Z,35.37
2019-02-15T03:18:03.269Z,34.15
2019-02-15T03:19:03.112Z,33.27
2019-02-15T03:20:02.923Z,36.92
2019-02-15T03:21:03.175Z,30.75
2019-02-15T03:22:02.948Z,35.59
2019-02-15T03:23:03.208Z,28.73
2019-02-15T03:24:02.430Z,36.56
2019-02-15T03:25:03.100Z,33.12
2019-02-15T03:26:03.331Z,38.88
2019-02-15T03:27:03.538Z,35.91
2019-02-15T03:28:03.651Z,31.09
2019-02-15T03:29:02.691Z,33.78
2019-02-15T03:30:02.899Z,33.97
2019-02-15T03:31:03.416Z,33.13
2019-02-15T03:32:03.019Z,33.66
2019-02-15T03:33:03.623Z,32.23
2019-02-15T03:34:02.864Z,32.89
2019-02-15T03:35:03.235Z,37.99
2019-02-15T03:36:03.582Z,31.25
2019-02-15T03:37:03.180Z,29.66
2019-02-15T03:38:02.921Z,35.55
2019-02-15T03:39:03.186Z,33.66
2019-02-15T03:40:02.561Z,33.66
2019-02-15T03:41:03.134Z,32.39
2019-02-15T03:42:03.653Z,32.92
2019-02-15T03:43:02.829Z,32.92
2019-02-15T03:44:03.878Z,32.64
2019-02-15T03:45:02.841Z,32
2019-02-15T03:46:03.371Z,32
2019-02-15T03:47:03.151Z,34.92
2019-02-15T03:48:03.335Z,35.77
2019-02-15T03:49:03.439Z,32.19
2019-02-15T03:50:04.906Z,33.39
2019-02-15T03:51:02.891Z,31.86
2019-02-15T03:52:03.298Z,34.49
2019-02-15T03:53:03.012Z,33.74
2019-02-15T03:54:03.254Z,32.2
2019-02-15T03:55:02.817Z,28.48
2019-02-15T03:56:03.001Z,36.32
2019-02-15T03:57:03.844Z,30.83
2019-02-15T03:58:03.190Z,35.01
2019-02-15T03:59:03.731Z,30.14
2019-02-15T04:00:03.452Z,33.96
2019-02-15T04:01:03.469Z,38.15
2019-02-15T04:02:03.089Z,38.45
2019-02-15T04:03:03.595Z,33.96
2019-02-15T04:04:03.196Z,37.08
2019-02-15T04:05:03.475Z,33.54
2019-02-15T04:06:03.212Z,37.38
2019-02-15T04:07:03.407Z,37.21
2019-02-15T04:08:02.881Z,51.03
2019-02-15T04:09:03.268Z,34.87
2019-02-15T04:10:02.902Z,36.88
2019-02-15T04:11:03.285Z,31.61
2019-02-15T04:12:03.405Z,33.12
2019-02-15T04:13:03.329Z,34.76
2019-02-15T04:14:02.575Z,31.49
2019-02-15T04:15:03.278Z,34.82
2019-02-15T04:16:03.456Z,36.34
2019-02-15T04:17:03.224Z,34.66
2019-02-15T04:18:03.677Z,33.65
2019-02-15T04:19:03.129Z,34.72
2019-02-15T04:20:03.405Z,33.82
2019-02-15T04:21:03.028Z,30.52
2019-02-15T04:22:03.243Z,35.14
2019-02-15T04:23:02.941Z,33.68
2019-02-15T04:24:03.429Z,30.23
2019-02-15T04:25:02.998Z,28.82
2019-02-15T04:26:03.314Z,29.21
2019-02-15T04:27:02.695Z,35.09
2019-02-15T04:28:03.181Z,33.93
2019-02-15T04:29:02.718Z,34.58
2019-02-15T04:30:03.358Z,34.19
2019-02-15T04:31:02.674Z,38.41
2019-02-15T04:32:03.361Z,38.41
2019-02-15T04:33:03.568Z,36.08
2019-02-15T04:34:03.000Z,40.61
2019-02-15T04:35:02.563Z,40.61
2019-02-15T04:36:02.904Z,37.82
2019-02-15T04:37:03.173Z,33.82
2019-02-15T04:38:03.666Z,33.82
2019-02-15T04:39:03.550Z,38.15
2019-02-15T04:40:03.301Z,34.16
2019-02-15T04:41:02.777Z,35.16
2019-02-15T04:42:03.240Z,32.5
2019-02-15T04:43:02.753Z,37.86
2019-02-15T04:44:03.343Z,37.06
2019-02-15T04:45:02.913Z,31.27
2019-02-15T04:46:02.991Z,42.75
2019-02-15T04:47:03.069Z,40.33
2019-02-15T04:48:03.581Z,42.41
2019-02-15T04:49:02.934Z,40.86
2019-02-15T04:50:02.603Z,45.72
2019-02-15T04:51:02.948Z,34.28
2019-02-15T04:52:03.353Z,37.83
2019-02-15T04:53:03.166Z,32.78
2019-02-15T04:54:03.468Z,32.01
2019-02-15T04:55:02.964Z,34.12
2019-02-15T04:56:03.404Z,37.01
2019-02-15T04:57:03.538Z,41.22
2019-02-15T04:58:02.878Z,34.45
2019-02-15T04:59:03.339Z,37.19
2019-02-15T05:00:03.067Z,36.49
2019-02-15T05:01:03.741Z,39.69
2019-02-15T05:02:02.917Z,34.29
2019-02-15T05:03:02.593Z,41.34
2019-02-15T05:04:03.020Z,34.83
2019-02-15T05:05:03.540Z,37.86
2019-02-15T05:06:03.112Z,35.75
2019-02-15T05:07:03.589Z,40.54
2019-02-15T05:08:02.949Z,43.41
2019-02-15T05:09:03.504Z,38.85
2019-02-15T05:10:03.128Z,37.3
2019-02-15T05:11:03.282Z,35.86
2019-02-15T05:12:02.728Z,41.75
2019-02-15T05:13:03.432Z,35.15
2019-02-15T05:14:02.619Z,41.77
2019-02-15T05:15:03.482Z,37.81
2019-02-15T05:16:03.908Z,36.29
2019-02-15T05:17:02.901Z,37.08
2019-02-15T05:18:03.364Z,40.61
2019-02-15T05:19:03.248Z,34.6
2019-02-15T05:20:03.641Z,34.6
2019-02-15T05:21:03.133Z,35.29
2019-02-15T05:22:03.542Z,38.49
2019-02-15T05:23:02.736Z,38.49
2019-02-15T05:24:02.966Z,35.45
2019-02-15T05:25:03.016Z,35.45
2019-02-15T05:26:03.188Z,31.95
2019-02-15T05:27:02.696Z,35.81
2019-02-15T05:28:02.815Z,32.85
2019-02-15T05:29:03.434Z,35.95
2019-02-15T05:30:03.894Z,36.73
2019-02-15T05:31:02.920Z,35.58
2019-02-15T05:32:03.591Z,33.52
2019-02-15T05:33:02.904Z,41.4
2019-02-15T05:34:03.137Z,33.31
2019-02-15T05:35:02.595Z,34.81
2019-02-15T05:36:03.014Z,33.26
2019-02-15T05:37:03.587Z,34.26
2019-02-15T05:38:03.250Z,33.41
2019-02-15T05:39:03.326Z,33.89
2019-02-15T05:40:03.296Z,46.63
2019-02-15T05:41:03.629Z,34.91
2019-02-15T05:42:02.947Z,40.8
2019-02-15T05:43:03.669Z,36.28
2019-02-15T05:44:03.568Z,35.36
2019-02-15T05:45:04.643Z,33.14
2019-02-15T05:46:03.177Z,36.54
2019-02-15T05:47:03.582Z,42.31
2019-02-15T05:48:03.141Z,36.26
2019-02-15T05:49:03.380Z,39.25
2019-02-15T05:50:03.236Z,40.91
2019-02-15T05:51:03.472Z,36.58
2019-02-15T05:52:02.945Z,37.84
2019-02-15T05:53:03.415Z,36.91
2019-02-15T05:54:02.918Z,37.13
2019-02-15T05:55:03.175Z,33.61
2019-02-15T05:56:03.503Z,36.22
2019-02-15T05:57:02.850Z,31.72
2019-02-15T05:58:03.749Z,31.76
2019-02-15T05:59:03.268Z,33.11
2019-02-15T06:00:03.743Z,41.14
2019-02-15T06:01:02.900Z,40.79
2019-02-15T06:02:03.278Z,36.71
2019-02-15T06:03:02.881Z,36.4
2019-02-15T06:04:03.498Z,43.49
2019-02-15T06:05:02.902Z,43.9
2019-02-15T06:06:03.220Z,38.54
2019-02-15T06:07:03.439Z,37.76
2019-02-15T06:08:03.152Z,37.76
2019-02-15T06:09:03.083Z,38.95
2019-02-15T06:10:02.918Z,41.45
2019-02-15T06:11:07.038Z,41.45
2019-02-15T06:12:02.991Z,42.77
2019-02-15T06:13:03.323Z,42.77
2019-02-15T06:14:03.566Z,45.06
2019-02-15T06:15:14.365Z,43.94
2019-02-15T06:16:03.361Z,42.97
2019-02-15T06:17:03.699Z,45.11
2019-02-15T06:18:03.458Z,44.42
2019-02-15T06:19:02.777Z,43.76
2019-02-15T06:20:03.135Z,41.41
2019-02-15T06:21:03.567Z,42.95
2019-02-15T06:22:02.659Z,39.39
2019-02-15T06:23:03.455Z,38.82
2019-02-15T06:24:02.910Z,41.1
2019-02-15T06:25:03.867Z,38.52
2019-02-15T06:26:03.043Z,43.62
2019-02-15T06:27:03.354Z,39.32
2019-02-15T06:28:02.815Z,38.47
2019-02-15T06:29:03.440Z,38.99
2019-02-15T06:30:03.341Z,38.46
2019-02-15T06:31:03.368Z,42.08
2019-02-15T06:32:02.875Z,42.18
2019-02-15T06:33:03.249Z,38.31
2019-02-15T06:34:03.248Z,45.08
2019-02-15T06:35:03.191Z,33.28
2019-02-15T06:36:03.647Z,37.1
2019-02-15T06:37:02.959Z,38.43
2019-02-15T06:38:03.463Z,37.58
2019-02-15T06:39:02.987Z,36.56
2019-02-15T06:40:03.404Z,32.77
2019-02-15T06:41:02.725Z,38.82
2019-02-15T06:42:03.184Z,41.41
2019-02-15T06:43:02.994Z,40.35
2019-02-15T06:44:03.314Z,35.75
2019-02-15T06:45:02.868Z,40.81
2019-02-15T06:46:03.103Z,40.52
2019-02-15T06:47:02.900Z,40.12
2019-02-15T06:48:03.422Z,37.38
2019-02-15T06:49:02.849Z,43.48
2019-02-15T06:50:03.101Z,42.95
2019-02-15T06:51:03.041Z,39.96
2019-02-15T06:52:02.873Z,32.85
2019-02-15T06:53:03.325Z,40.51
2019-02-15T06:54:03.671Z,41.24
2019-02-15T06:55:03.132Z,53.75
2019-02-15T06:56:02.820Z,43.46
2019-02-15T06:57:03.149Z,47.62
2019-02-15T06:58:03.407Z,47.34
2019-02-15T06:59:02.893Z,46.84
2019-02-15T07:00:03.690Z,46.69
2019-02-15T07:01:02.853Z,46.69
2019-02-15T07:02:03.756Z,48.25
2019-02-15T07:03:02.793Z,53.81
2019-02-15T07:04:03.455Z,53.81
2019-02-15T07:05:03.309Z,54.39
2019-02-15T07:06:03.618Z,66.03
2019-02-15T07:07:03.702Z,70.66
2019-02-15T07:08:03.462Z,69.88
2019-02-15T07:09:03.604Z,57.95
2019-02-15T07:10:02.940Z,61.79
2019-02-15T07:11:03.656Z,59.71
2019-02-15T07:12:02.914Z,55.25
2019-02-15T07:13:03.783Z,51.82
2019-02-15T07:14:03.035Z,48.81
2019-02-15T07:15:03.831Z,54.01
2019-02-15T07:16:03.057Z,61.88
2019-02-15T07:17:03.275Z,57.38
2019-02-15T07:18:02.891Z,57.16
2019-02-15T07:19:03.387Z,58.89
2019-02-15T07:20:02.732Z,53.83
2019-02-15T07:21:03.321Z,54.26
2019-02-15T07:22:03.439Z,51.08
2019-02-15T07:23:02.818Z,50.7
2019-02-15T07:24:03.177Z,48.18
2019-02-15T07:25:03.332Z,49.83
2019-02-15T07:26:03.498Z,51.4
2019-02-15T07:27:03.192Z,48.19
2019-02-15T07:28:02.517Z,47.28
2019-02-15T07:29:03.134Z,46.59
2019-02-15T07:30:03.716Z,48.92
2019-02-15T07:31:02.840Z,44.48
2019-02-15T07:32:03.331Z,42.96
2019-02-15T07:33:02.785Z,48.25
2019-02-15T07:34:03.233Z,48.37
2019-02-15T07:35:02.980Z,40.89
2019-02-15T07:36:03.101Z,46.29
2019-02-15T07:37:02.779Z,50.27
2019-02-15T07:38:03.215Z,44.69
2019-02-15T07:39:02.709Z,46.58
2019-02-15T07:40:03.151Z,48.92
2019-02-15T07:41:03.771Z,56.14
2019-02-15T07:42:02.934Z,48.22
2019-02-15T07:43:03.755Z,53.91
2019-02-15T07:44:03.164Z,52.6
2019-02-15T07:45:03.685Z,52.82
2019-02-15T07:46:03.442Z,50.07
2019-02-15T07:47:03.541Z,50.34
2019-02-15T07:48:02.897Z,50.34
2019-02-15T07:49:03.061Z,46.63
2019-02-15T07:50:03.749Z,46.63
2019-02-15T07:51:09.246Z,63.92
2019-02-15T07:52:02.703Z,55.85
2019-02-15T07:53:03.102Z,61
2019-02-15T07:54:03.539Z,51.49
2019-02-15T07:55:03.039Z,54.08
2019-02-15T07:56:02.779Z,58.71
2019-02-15T07:57:03.345Z,62.34
2019-02-15T07:58:03.708Z,55.89
2019-02-15T07:59:03.254Z,53.85
2019-02-15T08:00:03.603Z,68.09
2019-02-15T08:01:03.141Z,59.09
2019-02-15T08:02:03.608Z,50
2019-02-15T08:03:03.291Z,68.04
2019-02-15T08:04:03.779Z,51.48
2019-02-15T08:05:03.212Z,55.82
2019-02-15T08:06:03.230Z,47.99
2019-02-15T08:07:02.507Z,60.89
2019-02-15T08:08:03.149Z,54.94
2019-02-15T08:09:02.841Z,62.78
2019-02-15T08:10:03.267Z,51.75
2019-02-15T08:11:03.037Z,50.28
2019-02-15T08:12:03.072Z,56.56
2019-02-15T08:13:03.426Z,47.56
2019-02-15T08:14:03.126Z,55.85
2019-02-15T08:15:03.551Z,53.45
2019-02-15T08:16:02.991Z,51.96
2019-02-15T08:17:03.610Z,54.12
2019-02-15T08:18:02.702Z,51.86
2019-02-15T08:19:03.262Z,57.62
2019-02-15T08:20:03.797Z,50.49
2019-02-15T08:21:03.392Z,52.29
2019-02-15T08:22:03.533Z,60.18
2019-02-15T08:23:03.320Z,48.64
2019-02-15T08:24:03.577Z,49.26
2019-02-15T08:25:03.077Z,53.24
2019-02-15T08:26:03.576Z,47.46
2019-02-15T08:27:03.130Z,46.31
2019-02-15T08:28:03.452Z,45.64
2019-02-15T08:29:03.082Z,49.74
2019-02-15T08:30:03.804Z,45.92
2019-02-15T08:31:02.747Z,49.31
2019-02-15T08:32:03.246Z,44.19
2019-02-15T08:33:02.565Z,42.75
2019-02-15T08:34:02.965Z,49
2019-02-15T08:35:03.583Z,51.69
2019-02-15T08:36:03.059Z,51.69
2019-02-15T08:37:03.614Z,44.08
2019-02-15T08:38:03.012Z,44.08
2019-02-15T08:39:03.566Z,45.27
2019-02-15T08:40:02.917Z,46.55
2019-02-15T08:41:03.531Z,46.55
2019-02-15T08:42:04.560Z,41.28
2019-02-15T08:43:03.406Z,46.38
2019-02-15T08:44:02.730Z,40.48
2019-02-15T08:45:03.281Z,43.45
2019-02-15T08:46:03.591Z,45.36
2019-02-15T08:47:03.058Z,42.12
2019-02-15T08:48:03.333Z,41.33
2019-02-15T08:49:03.064Z,46.7
2019-02-15T08:50:03.614Z,48.96
2019-02-15T08:51:02.828Z,41.94
2019-02-15T08:52:03.213Z,44.72
2019-02-15T08:53:02.987Z,45.98
2019-02-15T08:54:03.295Z,48.22
2019-02-15T08:55:02.750Z,44.31
2019-02-15T08:56:03.284Z,44.42
2019-02-15T08:57:02.729Z,47.74
2019-02-15T08:58:03.078Z,52.14
2019-02-15T08:59:03.693Z,42.2
2019-02-15T09:00:03.269Z,39.85
2019-02-15T09:01:02.752Z,43.06
2019-02-15T09:02:03.093Z,44.12
2019-02-15T09:03:03.275Z,51.72
2019-02-15T09:04:03.462Z,47.54
2019-02-15T09:05:03.689Z,45.6
2019-02-15T09:06:02.765Z,47.98
2019-02-15T09:07:03.333Z,44.12
2019-02-15T09:08:02.972Z,46.75
2019-02-15T09:09:02.926Z,44.99
2019-02-15T09:10:03.602Z,57.38
2019-02-15T09:11:03.063Z,45.63
2019-02-15T09:12:02.821Z,47.24
2019-02-15T09:13:03.291Z,55.15
2019-02-15T09:14:02.793Z,51.86
2019-02-15T09:15:03.289Z,44.13
2019-02-15T09:16:09.959Z,49.32
2019-02-15T09:17:02.854Z,45.12
2019-02-15T09:18:03.260Z,42.31
2019-02-15T09:19:02.778Z,51.46
2019-02-15T09:20:03.272Z,45.55
2019-02-15T09:21:02.719Z,44.26
2019-02-15T09:22:02.887Z,42.98
2019-02-15T09:23:03.598Z,44.78
2019-02-15T09:24:03.220Z,47.46
2019-02-15T09:25:03.067Z,48.69
2019-02-15T09:26:03.388Z,48.27
2019-02-15T09:27:02.967Z,46.02
2019-02-15T09:28:03.652Z,40.96
2019-02-15T09:29:03.054Z,40.05
2019-02-15T09:30:02.871Z,49.56
2019-02-15T09:31:02.907Z,37.75
2019-02-15T09:32:02.706Z,37.75
2019-02-15T09:33:03.134Z,38.29
2019-02-15T09:34:03.261Z,39.06
2019-02-15T09:35:03.185Z,39.06
2019-02-15T09:36:02.875Z,42.65
2019-02-15T09:37:03.152Z,44.01
2019-02-15T09:38:03.577Z,41.37
2019-02-15T09:39:03.072Z,41.04
2019-02-15T09:40:03.492Z,43.25
2019-02-15T09:41:02.925Z,41.85
2019-02-15T09:42:02.962Z,43.16
2019-02-15T09:43:03.503Z,46.45
2019-02-15T09:44:03.350Z,44.21
2019-02-15T09:45:03.310Z,38.18
2019-02-15T09:46:02.780Z,50.23
2019-02-15T09:47:03.263Z,39.35
2019-02-15T09:48:02.791Z,39.92
2019-02-15T09:49:03.570Z,45.4
2019-02-15T09:50:03.643Z,40.18
2019-02-15T09:51:02.872Z,42.14
2019-02-15T09:52:03.698Z,46.33
2019-02-15T09:53:03.085Z,42.16
2019-02-15T09:54:02.691Z,45.75
2019-02-15T09:55:03.233Z,42.43
2019-02-15T09:56:03.053Z,37.86
2019-02-15T09:57:03.557Z,39.79
2019-02-15T09:58:03.350Z,38.2
2019-02-15T09:59:03.407Z,42.08
2019-02-15T10:00:02.882Z,42.53
2019-02-15T10:01:03.140Z,35.81
2019-02-15T10:02:02.743Z,37.09
2019-02-15T10:03:03.502Z,38.36
2019-02-15T10:04:02.812Z,35.11
2019-02-15T10:05:03.899Z,38.93
2019-02-15T10:06:03.115Z,41.27
2019-02-15T10:07:03.657Z,42.24
2019-02-15T10:08:02.954Z,37.4
2019-02-15T10:09:03.108Z,39.24
2019-02-15T10:10:02.817Z,36.32
2019-02-15T10:11:03.351Z,37.1
2019-02-15T10:12:02.786Z,40.49
2019-02-15T10:13:03.353Z,37.29
2019-02-15T10:14:02.957Z,36.28
2019-02-15T10:15:03.564Z,41.25
2019-02-15T10:16:02.863Z,41.26
2019-02-15T10:17:03.544Z,37.66
2019-02-15T10:18:03.304Z,37.66
2019-02-15T10:19:03.376Z,36.8
2019-02-15T10:20:02.923Z,36.8
2019-02-15T10:21:03.399Z,36.27
2019-02-15T10:22:02.945Z,33.51
2019-02-15T10:23:03.213Z,33.51
2019-02-15T10:24:02.954Z,45.04
2019-02-15T10:25:03.404Z,35.22
2019-02-15T10:26:03.533Z,42.95
2019-02-15T10:27:03.132Z,29.76
2019-02-15T10:28:03.659Z,34.37
2019-02-15T10:29:03.182Z,31.11
2019-02-15T10:30:03.614Z,37.4
2019-02-15T10:31:02.967Z,42.36
2019-02-15T10:32:03.511Z,37.15
2019-02-15T10:33:02.912Z,41.09
2019-02-15T10:34:03.451Z,33.26
2019-02-15T10:35:03.414Z,33.36
2019-02-15T10:36:02.785Z,33.91
2019-02-15T10:37:03.049Z,35.5
2019-02-15T10:38:03.273Z,40.91
2019-02-15T10:39:02.796Z,33.87
2019-02-15T10:40:03.174Z,36.44
2019-02-15T10:41:02.797Z,34.02
2019-02-15T10:42:03.444Z,32.31
2019-02-15T10:43:02.409Z,31.82
2019-02-15T10:44:03.230Z,31.16
2019-02-15T10:45:03.663Z,31
2019-02-15T10:46:02.771Z,36.55
2019-02-15T10:47:03.093Z,31.84
2019-02-15T10:48:02.899Z,30.35
2019-02-15T10:49:02.993Z,31.01
2019-02-15T10:50:05.068Z,32.96
2019-02-15T10:51:03.086Z,34.2
2019-02-15T10:52:03.661Z,32.91
2019-02-15T10:53:03.560Z,32.01
2019-02-15T10:54:03.514Z,30.77
2019-02-15T10:55:03.018Z,33.69
2019-02-15T10:56:03.322Z,30.81
2019-02-15T10:57:03.551Z,26.84
2019-02-15T10:58:02.722Z,30.45
2019-02-15T10:59:03.282Z,29.94
2019-02-15T11:00:03.487Z,31.69
2019-02-15T11:01:03.312Z,28.38
2019-02-15T11:02:02.758Z,31.19
2019-02-15T11:03:03.222Z,26.72
2019-02-15T11:04:03.394Z,27.22
2019-02-15T11:05:02.824Z,29.03
2019-02-15T11:06:03.322Z,36.08
2019-02-15T11:07:02.504Z,32.6
2019-02-15T11:08:02.931Z,31.31
2019-02-15T11:09:03.055Z,31.31
2019-02-15T11:10:03.339Z,25.89
2019-02-15T11:11:03.607Z,29.28
2019-02-15T11:12:03.528Z,29.28
2019-02-15T11:13:02.905Z,24.66
2019-02-15T11:14:03.249Z,32.04
2019-02-15T11:15:02.775Z,37.63
2019-02-15T11:16:03.146Z,27.76
2019-02-15T11:17:03.446Z,29.41
2019-02-15T11:18:02.761Z,26.98
2019-02-15T11:19:03.296Z,28.26
2019-02-15T11:20:03.137Z,32.69
2019-02-15T11:21:03.189Z,28.81
2019-02-15T11:22:03.447Z,29.87
2019-02-15T11:23:02.748Z,30.22
2019-02-15T11:24:03.617Z,27.86
2019-02-15T11:25:02.925Z,28.96
2019-02-15T11:26:04.556Z,31.59
2019-02-15T11:27:03.556Z,30.35
2019-02-15T11:28:03.371Z,32.48
2019-02-15T11:29:03.598Z,29.92
2019-02-15T11:30:03.129Z,26.41
2019-02-15T11:31:03.430Z,33.51
2019-02-15T11:32:03.443Z,29.92
2019-02-15T11:33:03.740Z,31.88
2019-02-15T11:34:02.939Z,29.38
2019-02-15T11:35:02.786Z,29.32
2019-02-15T11:36:03.140Z,30.79
2019-02-15T11:37:03.699Z,25.87
2019-02-15T11:38:03.288Z,26.56
2019-02-15T11:39:02.860Z,33.74
2019-02-15T11:40:03.382Z,30.15
2019-02-15T11:41:10.862Z,29.62
2019-02-15T11:42:03.092Z,28.53
2019-02-15T11:43:03.509Z,25.25
2019-02-15T11:44:03.348Z,28.34
2019-02-15T11:45:03.577Z,28.44
2019-02-15T11:46:03.595Z,24.22
2019-02-15T11:47:03.621Z,25.38
2019-02-15T11:48:03.688Z,26.38
2019-02-15T11:49:03.300Z,25.98
2019-02-15T11:50:03.568Z,33.24
2019-02-15T11:51:03.230Z,27.09
2019-02-15T11:52:03.589Z,29.69
2019-02-15T11:53:02.697Z,26.76
2019-02-15T11:54:03.536Z,28.1
2019-02-15T11:55:02.987Z,26.82
2019-02-15T11:56:03.454Z,25.71
2019-02-15T11:57:02.592Z,25.71
2019-02-15T11:58:03.578Z,26.23
2019-02-15T11:59:02.976Z,27.39
2019-02-15T12:00:03.310Z,27.39
2019-02-15T12:01:02.999Z,24.56
2019-02-15T12:02:05.986Z,24.56
2019-02-15T12:03:03.819Z,25.29
2019-02-15T12:04:02.512Z,25.91
2019-02-15T12:05:03.103Z,23.15
2019-02-15T12:06:03.833Z,25.09
2019-02-15T12:07:03.627Z,26.91
2019-02-15T12:08:02.946Z,26.72
2019-02-15T12:09:03.322Z,24.98
2019-02-15T12:10:03.484Z,27.39
2019-02-15T12:11:03.168Z,26.13
2019-02-15T12:12:10.345Z,23.1
2019-02-15T12:13:01.885Z,26.59
2019-02-15T12:14:03.463Z,23.05
2019-02-15T12:15:03.218Z,24.31
2019-02-15T12:16:03.626Z,24.51
2019-02-15T12:17:05.567Z,27.68
2019-02-15T12:18:03.787Z,21.99
2019-02-15T12:19:02.757Z,30.72
2019-02-15T12:20:03.402Z,28.6
2019-02-15T12:21:02.953Z,29.82
2019-02-15T12:22:03.591Z,24.7
2019-02-15T12:23:02.720Z,26.56
2019-02-15T12:24:03.892Z,24.16
2019-02-15T12:25:03.581Z,25.02
2019-02-15T12:26:03.069Z,29.44
2019-02-15T12:27:03.151Z,24.81
2019-02-15T12:28:03.648Z,25.38
2019-02-15T12:29:03.066Z,32.41
2019-02-15T12:30:03.589Z,28.15
2019-02-15T12:31:03.440Z,24.46
2019-02-15T12:32:03.741Z,23.09
2019-02-15T12:33:03.125Z,26.76
2019-02-15T12:34:03.417Z,19.26
2019-02-15T12:35:03.159Z,25.48
2019-02-15T12:36:03.337Z,25.55
2019-02-15T12:37:03.198Z,25.38
2019-02-15T12:38:03.314Z,23.58
2019-02-15T12:39:02.922Z,23.9
2019-02-15T12:40:02.980Z,24.46
2019-02-15T12:41:03.237Z,24.04
2019-02-15T12:42:03.084Z,33.26
2019-02-15T12:43:03.582Z,24.58
2019-02-15T12:44:03.005Z,25.68
2019-02-15T12:45:03.590Z,29.73
2019-02-15T12:46:03.640Z,29.73
2019-02-15T12:47:03.372Z,23.66
2019-02-15T12:48:02.763Z,23.91
2019-02-15T12:49:03.509Z,23.91
2019-02-15T12:50:03.782Z,23.55
2019-02-15T12:51:03.021Z,25.36
2019-02-15T12:52:03.495Z,25.36
2019-02-15T12:53:02.963Z,26.66
2019-02-15T12:54:03.112Z,24.84